CheckWX is a tool to help pilots better visualize weather data.  It is not intended as a substitute for an official pre-flight weather briefing.

06:47:38 UTC

EHRD TAF
Rotterdam Airport
Rotterdam, The Netherlands
TAF EHRD 170425Z 1706/1812 16004KT CAVOK BECMG 1707/1710 20010KT SCT035 BECMG 1714/1717 31007KT BECMG 1718/1721 VRB03KT CAVOK

Jun-17@
06:00 UTC

Jun-17 @ 06:00 UTC

Jun-17@
07:00 UTC

Jun-17 @ 07:00 UTC

TAF EHRD 170425Z 1706/1812 16004KT CAVOK
Wind
  • 160° at 4 KTS
Conditions
No significant weather
Cloud Levels
  • No significant clouds

Jun-17@
07:00 UTC

Jun-17 @ 07:00 UTC

Jun-17@
14:00 UTC

Jun-17 @ 14:00 UTC

BECMG 1707/1710 20010KT SCT035

Becoming

Becoming Conditions expected by Mon, Jun 17, 2019 @ 10:00 UTC

Wind
  • 200° at 10 KTS
Conditions
No significant weather
Cloud Levels
  • Scattered at 3,500' AGL

Jun-17@
14:00 UTC

Jun-17 @ 14:00 UTC

Jun-17@
18:00 UTC

Jun-17 @ 18:00 UTC

BECMG 1714/1717 31007KT

Becoming

Becoming Conditions expected by Mon, Jun 17, 2019 @ 17:00 UTC

Wind
  • 310° at 7 KTS
Conditions
No significant weather
Cloud Levels
  • Scattered at 3,500' AGL

Jun-17@
18:00 UTC

Jun-17 @ 18:00 UTC

Jun-18@
12:00 UTC

Jun-18 @ 12:00 UTC

BECMG 1718/1721 VRB03KT CAVOK

Becoming

Becoming Conditions expected by Mon, Jun 17, 2019 @ 21:00 UTC

Wind
  • Variable at 3 KTS
Conditions
No significant weather
Cloud Levels
  • No significant clouds